LBF weather

North Platte Regional Airport Lee Bird Field
North Platte, Nebraska, United States

Public forecast

Using degrees Fahrenheit for public forecast. Weather courtesy of forecast.io.

Current aviation weather report (METAR) for North Platte Regional Airport Lee Bird Field

Retrieved 2019/11/12 13:53 UTC (1 hour ago):

KLBF 121353Z AUTO 00000KT 10SM CLR M15/M18 A3031 RMK AO2 SLP323 T11501178

Aviation forecast (TAF) for North Platte Regional Airport Lee Bird Field

Retrieved 2019/11/12 12:33 UTC (2 hours ago):

TAF KLBF 121131Z 1212/1312 VRB04KT P6SM SKC FM121700 21010KT P6SM SKC FM130000 18005KT P6SM SKC FM130400 VRB04KT P6SM SKC FM130700 VRB04KT P6SM OVC250